createdAt,value
2017-09-03T00:01:52.874Z,10.10
2017-09-03T00:04:20.405Z,10.10
2017-09-03T00:06:47.940Z,10.00
2017-09-03T00:09:15.542Z,10.00
2017-09-03T00:11:43.085Z,10.00
2017-09-03T00:14:10.621Z,10.00
2017-09-03T00:16:38.197Z,10.00
2017-09-03T00:21:46.365Z,10.00
2017-09-03T00:24:13.925Z,10.00
2017-09-03T00:26:41.464Z,9.90
2017-09-03T00:29:09.024Z,9.80
2017-09-03T00:31:36.557Z,9.80
2017-09-03T00:34:04.117Z,9.80
2017-09-03T00:36:31.690Z,9.70
2017-09-03T00:38:59.221Z,9.70
2017-09-03T00:41:26.753Z,9.60
2017-09-03T00:43:54.332Z,9.60
2017-09-03T00:46:21.896Z,9.60
2017-09-03T00:48:49.447Z,9.50
2017-09-03T00:51:17.025Z,9.50
2017-09-03T00:53:44.566Z,9.50
2017-09-03T00:56:12.128Z,9.50
2017-09-03T00:58:39.698Z,9.50
2017-09-03T01:01:07.236Z,9.40
2017-09-03T01:03:34.791Z,9.40
2017-09-03T01:06:02.362Z,9.30
2017-09-03T01:08:29.889Z,9.30
2017-09-03T01:10:57.421Z,9.30
2017-09-03T01:13:24.982Z,9.30
2017-09-03T01:15:52.517Z,9.30
2017-09-03T01:18:20.053Z,9.30
2017-09-03T01:20:47.630Z,9.20
2017-09-03T01:23:15.184Z,9.20
2017-09-03T01:25:42.735Z,9.30
2017-09-03T01:28:10.338Z,9.30
2017-09-03T01:30:37.885Z,9.30
2017-09-03T01:33:05.419Z,9.30
2017-09-03T01:35:33.016Z,9.20
2017-09-03T01:38:00.560Z,9.20
2017-09-03T01:40:28.103Z,9.20
2017-09-03T01:42:55.658Z,9.20
2017-09-03T01:45:23.190Z,9.20
2017-09-03T01:47:50.739Z,9.10
2017-09-03T01:50:18.301Z,9.10
2017-09-03T01:52:45.834Z,9.10
2017-09-03T01:55:13.365Z,9.00
2017-09-03T01:57:40.931Z,9.00
2017-09-03T02:00:08.457Z,9.00
2017-09-03T02:02:35.994Z,8.90
2017-09-03T02:05:03.560Z,8.90
2017-09-03T02:07:31.100Z,9.00
2017-09-03T02:09:58.637Z,9.00
2017-09-03T02:12:26.195Z,8.90
2017-09-03T02:14:53.750Z,8.90
2017-09-03T02:17:21.300Z,8.80
2017-09-03T02:19:48.883Z,8.80
2017-09-03T02:22:16.418Z,8.80
2017-09-03T02:24:43.964Z,8.80
2017-09-03T02:27:11.557Z,8.90
2017-09-03T02:29:39.103Z,8.90
2017-09-03T02:32:06.648Z,8.80
2017-09-03T02:34:34.226Z,8.80
2017-09-03T02:37:01.767Z,8.80
2017-09-03T02:39:29.297Z,8.80
2017-09-03T02:41:56.857Z,8.80
2017-09-03T02:44:24.407Z,8.70
2017-09-03T02:46:51.946Z,8.70
2017-09-03T02:49:19.553Z,8.70
2017-09-03T02:51:47.152Z,8.70
2017-09-03T02:54:14.684Z,8.60
2017-09-03T02:56:42.257Z,8.60
2017-09-03T02:59:09.803Z,8.60
2017-09-03T03:01:37.364Z,8.60
2017-09-03T03:04:04.956Z,8.60
2017-09-03T03:06:32.510Z,8.60
2017-09-03T03:09:00.073Z,8.60
2017-09-03T03:11:27.677Z,8.50
2017-09-03T03:13:55.237Z,8.50
2017-09-03T03:16:22.788Z,8.40
2017-09-03T03:18:50.375Z,8.40
2017-09-03T03:21:17.924Z,8.40
2017-09-03T03:23:45.473Z,8.30
2017-09-03T03:26:13.043Z,8.30
2017-09-03T03:28:40.592Z,8.30
2017-09-03T03:31:08.139Z,8.30
2017-09-03T03:33:35.705Z,8.30
2017-09-03T03:36:03.261Z,8.30
2017-09-03T03:38:30.789Z,8.30
2017-09-03T03:40:58.353Z,8.30
2017-09-03T03:43:25.900Z,8.30
2017-09-03T03:45:53.465Z,8.40
2017-09-03T03:48:21.023Z,8.40
2017-09-03T03:50:48.572Z,8.30
2017-09-03T03:53:16.114Z,8.30
2017-09-03T03:55:43.668Z,8.30
2017-09-03T03:58:11.214Z,8.30
2017-09-03T04:00:38.776Z,8.30
2017-09-03T04:03:06.412Z,8.30
2017-09-03T04:05:33.941Z,8.30
2017-09-03T04:08:01.473Z,8.30
2017-09-03T04:10:29.043Z,8.20
2017-09-03T04:12:56.587Z,8.20
2017-09-03T04:15:24.116Z,8.20
2017-09-03T04:17:51.696Z,8.20
2017-09-03T04:20:19.244Z,8.20
2017-09-03T04:22:46.784Z,8.20
2017-09-03T04:25:14.368Z,8.20
2017-09-03T04:27:41.929Z,8.20
2017-09-03T04:30:09.469Z,8.20
2017-09-03T04:32:37.037Z,8.20
2017-09-03T04:35:04.588Z,8.20
2017-09-03T04:37:32.128Z,8.20
2017-09-03T04:39:59.697Z,8.20
2017-09-03T04:42:27.230Z,8.20
2017-09-03T04:44:54.771Z,8.20
2017-09-03T04:47:22.345Z,8.20
2017-09-03T04:49:49.878Z,8.20
2017-09-03T04:52:17.410Z,8.20
2017-09-03T04:54:44.973Z,8.20
2017-09-03T04:57:12.521Z,8.30
2017-09-03T04:59:40.062Z,8.30
2017-09-03T05:02:07.696Z,8.20
2017-09-03T05:04:35.244Z,8.30
2017-09-03T05:07:02.782Z,8.30
2017-09-03T05:09:30.359Z,8.40
2017-09-03T05:11:57.912Z,8.30
2017-09-03T05:14:25.454Z,8.30
2017-09-03T05:16:53.014Z,8.40
2017-09-03T05:19:20.559Z,8.40
2017-09-03T05:21:48.097Z,8.40
2017-09-03T05:24:15.664Z,8.50
2017-09-03T05:26:43.216Z,8.50
2017-09-03T05:29:10.772Z,8.60
2017-09-03T05:31:38.332Z,8.60
2017-09-03T05:34:05.889Z,8.70
2017-09-03T05:36:33.443Z,8.70
2017-09-03T05:39:01.022Z,8.80
2017-09-03T05:41:28.574Z,8.80
2017-09-03T05:43:56.114Z,8.90
2017-09-03T05:46:23.693Z,9.00
2017-09-03T05:48:51.255Z,9.10
2017-09-03T05:51:18.804Z,9.20
2017-09-03T05:53:46.387Z,9.30
2017-09-03T05:56:13.939Z,9.30
2017-09-03T05:58:41.468Z,9.50
2017-09-03T06:01:09.035Z,9.60
2017-09-03T06:03:36.592Z,9.70
2017-09-03T06:06:04.138Z,9.80
2017-09-03T06:08:31.717Z,9.90
2017-09-03T06:10:59.290Z,10.00
2017-09-03T06:13:26.843Z,10.20
2017-09-03T06:15:54.422Z,10.20
2017-09-03T06:18:21.974Z,10.30
2017-09-03T06:20:49.532Z,10.30
2017-09-03T06:23:17.104Z,10.30
2017-09-03T06:25:44.648Z,10.40
2017-09-03T06:28:12.193Z,10.60
2017-09-03T06:30:39.772Z,10.90
2017-09-03T06:33:07.338Z,11.10
2017-09-03T06:35:34.891Z,11.30
2017-09-03T06:38:02.454Z,11.50
2017-09-03T06:40:30.019Z,11.80
2017-09-03T06:42:57.577Z,11.90
2017-09-03T06:45:25.159Z,12.10
2017-09-03T06:47:52.703Z,12.20
2017-09-03T06:50:20.296Z,12.40
2017-09-03T06:52:47.867Z,12.40
2017-09-03T06:55:15.401Z,12.50
2017-09-03T06:57:42.937Z,12.50
2017-09-03T07:00:10.508Z,12.60
2017-09-03T07:02:38.053Z,12.90
2017-09-03T07:05:05.586Z,13.10
2017-09-03T07:07:33.176Z,13.20
2017-09-03T07:10:00.714Z,13.30
2017-09-03T07:12:28.249Z,13.40
2017-09-03T07:14:55.830Z,13.50
2017-09-03T07:17:23.369Z,13.50
2017-09-03T07:19:50.920Z,13.60
2017-09-03T07:22:19.347Z,13.70
2017-09-03T07:24:46.891Z,13.90
2017-09-03T07:27:14.425Z,14.10
2017-09-03T07:29:42.003Z,14.30
2017-09-03T07:32:09.560Z,14.40
2017-09-03T07:34:37.110Z,14.50
2017-09-03T07:37:04.985Z,14.60
2017-09-03T07:39:32.524Z,14.70
2017-09-03T07:42:01.521Z,14.90
2017-09-03T07:44:29.091Z,15.00
2017-09-03T07:46:56.638Z,15.00
2017-09-03T07:49:24.247Z,15.00
2017-09-03T07:51:51.788Z,15.10
2017-09-03T07:54:19.329Z,15.20
2017-09-03T07:56:46.908Z,15.30
2017-09-03T07:59:14.445Z,15.40
2017-09-03T08:01:42.015Z,15.50
2017-09-03T08:04:09.545Z,15.60
2017-09-03T08:06:37.114Z,15.80
2017-09-03T08:09:04.655Z,15.90
2017-09-03T08:11:32.208Z,16.00
2017-09-03T08:13:59.777Z,16.10
2017-09-03T08:16:27.330Z,16.20
2017-09-03T08:18:54.904Z,16.30
2017-09-03T08:21:22.485Z,16.40
2017-09-03T08:23:50.065Z,16.50
2017-09-03T08:26:18.199Z,16.50
2017-09-03T08:28:45.743Z,16.70
2017-09-03T08:31:13.300Z,16.80
2017-09-03T08:33:40.837Z,16.80
2017-09-03T08:36:08.419Z,16.90
2017-09-03T08:38:35.954Z,16.80
2017-09-03T08:41:03.536Z,17.00
2017-09-03T08:43:31.088Z,17.10
2017-09-03T08:45:58.629Z,17.20
2017-09-03T08:48:26.200Z,17.40
2017-09-03T08:50:53.738Z,17.50
2017-09-03T08:53:21.315Z,17.50
2017-09-03T08:55:48.850Z,17.70
2017-09-03T08:58:16.398Z,17.60
2017-09-03T09:00:43.969Z,17.60
2017-09-03T09:03:11.536Z,17.80
2017-09-03T09:05:39.853Z,18.00
2017-09-03T09:08:07.408Z,18.00
2017-09-03T09:10:34.992Z,18.10
2017-09-03T09:13:02.530Z,18.10
2017-09-03T09:15:30.065Z,18.30
2017-09-03T09:17:57.649Z,18.40
2017-09-03T09:20:25.195Z,18.30
2017-09-03T09:22:52.746Z,18.40
2017-09-03T09:25:20.473Z,18.40
2017-09-03T09:27:48.033Z,18.40
2017-09-03T09:30:15.560Z,18.40
2017-09-03T09:32:43.140Z,18.50
2017-09-03T09:35:10.696Z,18.60
2017-09-03T09:37:38.231Z,18.80
2017-09-03T09:40:05.803Z,18.90
2017-09-03T09:42:33.341Z,19.00
2017-09-03T09:45:00.865Z,19.00
2017-09-03T09:47:28.440Z,18.90
2017-09-03T09:49:55.988Z,18.90
2017-09-03T09:52:23.547Z,19.20
2017-09-03T09:54:51.115Z,19.40
2017-09-03T09:57:18.738Z,19.40
2017-09-03T09:59:46.276Z,19.30
2017-09-03T10:02:13.842Z,19.20
2017-09-03T10:04:41.423Z,19.10
2017-09-03T10:07:09.014Z,19.00
2017-09-03T10:09:36.663Z,19.10
2017-09-03T10:12:04.207Z,19.30
2017-09-03T10:14:31.767Z,19.60
2017-09-03T10:16:59.329Z,19.90
2017-09-03T10:19:26.865Z,20.10
2017-09-03T10:21:54.398Z,20.30
2017-09-03T10:24:22.007Z,20.30
2017-09-03T10:26:49.549Z,20.40
2017-09-03T10:29:17.082Z,20.60
2017-09-03T10:31:44.696Z,20.60
2017-09-03T10:34:12.277Z,20.70
2017-09-03T10:36:39.809Z,20.70
2017-09-03T10:39:07.386Z,20.70
2017-09-03T10:41:35.046Z,20.70
2017-09-03T10:44:02.591Z,20.70
2017-09-03T10:46:30.154Z,20.50
2017-09-03T10:48:57.682Z,19.90
2017-09-03T10:51:25.322Z,20.00
2017-09-03T10:53:52.885Z,20.00
2017-09-03T10:56:20.412Z,20.20
2017-09-03T10:58:47.944Z,20.30
2017-09-03T11:01:15.528Z,20.30
2017-09-03T11:03:43.074Z,20.20
2017-09-03T11:06:10.624Z,20.00
2017-09-03T11:08:38.204Z,19.90
2017-09-03T11:11:05.753Z,20.00
2017-09-03T11:13:33.336Z,20.40
2017-09-03T11:16:00.922Z,20.60
2017-09-03T11:18:28.449Z,20.80
2017-09-03T11:20:56.032Z,21.10
2017-09-03T11:23:23.620Z,21.10
2017-09-03T11:25:51.162Z,21.40
2017-09-03T11:28:18.718Z,21.60
2017-09-03T11:30:46.299Z,21.60
2017-09-03T11:33:13.834Z,21.60
2017-09-03T11:35:41.458Z,21.40
2017-09-03T11:38:09.074Z,21.40
2017-09-03T11:40:36.663Z,21.10
2017-09-03T11:43:04.272Z,21.10
2017-09-03T11:45:31.888Z,21.30
2017-09-03T11:47:59.421Z,21.40
2017-09-03T11:50:26.949Z,21.40
2017-09-03T11:52:54.529Z,21.40
2017-09-03T11:55:22.077Z,21.40
2017-09-03T11:57:49.709Z,21.30
2017-09-03T12:00:17.297Z,21.10
2017-09-03T12:02:44.830Z,21.10
2017-09-03T12:05:12.408Z,21.20
2017-09-03T12:07:40.000Z,21.20
2017-09-03T12:10:07.602Z,21.00
2017-09-03T12:12:35.194Z,20.80
2017-09-03T12:15:02.781Z,20.60
2017-09-03T12:17:30.335Z,20.60
2017-09-03T12:19:57.886Z,20.70
2017-09-03T12:22:25.472Z,20.60
2017-09-03T12:24:53.007Z,20.60
2017-09-03T12:27:20.561Z,20.50
2017-09-03T12:29:48.131Z,20.20
2017-09-03T12:32:15.680Z,20.30
2017-09-03T12:34:43.229Z,20.40
2017-09-03T12:37:10.811Z,20.30
2017-09-03T12:39:38.338Z,20.30
2017-09-03T12:42:05.861Z,20.10
2017-09-03T12:44:33.422Z,20.10
2017-09-03T12:47:00.973Z,20.00
2017-09-03T12:49:28.528Z,20.10
2017-09-03T12:51:56.086Z,20.10
2017-09-03T12:54:23.632Z,20.10
2017-09-03T12:56:51.186Z,20.10
2017-09-03T12:59:18.744Z,20.00
2017-09-03T13:01:46.274Z,20.00
2017-09-03T13:04:13.832Z,19.80
2017-09-03T13:06:41.413Z,19.60
2017-09-03T13:09:08.976Z,19.60
2017-09-03T13:11:36.518Z,19.60
2017-09-03T13:14:04.092Z,19.70
2017-09-03T13:16:31.639Z,19.90
2017-09-03T13:18:59.174Z,20.00
2017-09-03T13:21:26.729Z,20.20
2017-09-03T13:23:54.261Z,20.50
2017-09-03T13:26:21.807Z,20.60
2017-09-03T13:28:49.377Z,20.60
2017-09-03T13:31:16.902Z,20.60
2017-09-03T13:33:44.444Z,20.50
2017-09-03T13:36:12.027Z,20.30
2017-09-03T13:38:39.624Z,20.30
2017-09-03T13:41:07.156Z,20.30
2017-09-03T13:43:34.731Z,20.30
2017-09-03T13:46:02.267Z,20.30
2017-09-03T13:48:29.796Z,20.30
2017-09-03T13:50:57.358Z,20.40
2017-09-03T13:53:24.882Z,20.50
2017-09-03T13:55:52.423Z,20.60
2017-09-03T13:58:19.978Z,20.70
2017-09-03T14:00:47.527Z,20.80
2017-09-03T14:03:15.084Z,20.90
2017-09-03T14:05:42.668Z,20.90
2017-09-03T14:08:10.192Z,20.90
2017-09-03T14:10:37.727Z,20.90
2017-09-03T14:13:05.294Z,21.00
2017-09-03T14:15:32.831Z,21.00
2017-09-03T14:18:00.388Z,21.20
2017-09-03T14:20:27.971Z,21.30
2017-09-03T14:22:55.513Z,21.50
2017-09-03T14:25:23.063Z,21.60
2017-09-03T14:27:50.636Z,21.80
2017-09-03T14:30:18.186Z,21.90
2017-09-03T14:32:45.713Z,21.90
2017-09-03T14:35:13.264Z,21.70
2017-09-03T14:37:40.804Z,21.70
2017-09-03T14:40:08.347Z,21.80
2017-09-03T14:42:35.925Z,21.80
2017-09-03T14:45:03.471Z,21.60
2017-09-03T14:47:31.038Z,21.50
2017-09-03T14:49:58.617Z,21.50
2017-09-03T14:52:26.167Z,21.50
2017-09-03T14:54:54.457Z,21.40
2017-09-03T14:57:22.040Z,21.40
2017-09-03T14:59:49.577Z,21.30
2017-09-03T15:02:17.110Z,21.20
2017-09-03T15:04:44.680Z,21.20
2017-09-03T15:07:12.222Z,21.20
2017-09-03T15:09:39.753Z,21.20
2017-09-03T15:12:07.313Z,21.10
2017-09-03T15:14:34.838Z,21.10
2017-09-03T15:17:02.371Z,21.20
2017-09-03T15:19:29.952Z,21.10
2017-09-03T15:21:57.481Z,21.10
2017-09-03T15:24:25.032Z,21.10
2017-09-03T15:26:52.615Z,21.10
2017-09-03T15:29:20.161Z,21.00
2017-09-03T15:31:47.684Z,21.10
2017-09-03T15:34:15.250Z,21.00
2017-09-03T15:36:42.804Z,21.00
2017-09-03T15:39:10.343Z,21.00
2017-09-03T15:41:37.907Z,20.90
2017-09-03T15:44:05.452Z,20.70
2017-09-03T15:46:32.983Z,20.60
2017-09-03T15:49:00.545Z,20.50
2017-09-03T15:51:28.076Z,20.40
2017-09-03T15:53:55.617Z,20.40
2017-09-03T15:56:23.169Z,20.30
2017-09-03T15:58:50.711Z,20.20
2017-09-03T16:01:18.239Z,20.00
2017-09-03T16:03:45.811Z,19.80
2017-09-03T16:06:13.354Z,19.80
2017-09-03T16:08:40.878Z,19.70
2017-09-03T16:11:08.476Z,19.60
2017-09-03T16:13:36.001Z,19.50
2017-09-03T16:16:03.534Z,19.40
2017-09-03T16:18:31.102Z,19.30
2017-09-03T16:20:58.658Z,19.20
2017-09-03T16:23:26.208Z,19.00
2017-09-03T16:25:53.780Z,18.90
2017-09-03T16:28:21.317Z,18.90
2017-09-03T16:30:48.851Z,18.80
2017-09-03T16:33:16.414Z,18.70
2017-09-03T16:35:43.957Z,18.60
2017-09-03T16:38:11.500Z,18.60
2017-09-03T16:40:39.088Z,18.50
2017-09-03T16:43:06.622Z,18.50
2017-09-03T16:45:34.164Z,18.40
2017-09-03T16:48:01.726Z,18.40
2017-09-03T16:50:29.257Z,18.40
2017-09-03T16:52:56.781Z,18.40
2017-09-03T16:55:24.352Z,18.40
2017-09-03T16:57:51.892Z,18.40
2017-09-03T17:00:19.457Z,18.30
2017-09-03T17:02:47.019Z,18.30
2017-09-03T17:05:15.335Z,18.30
2017-09-03T17:07:42.874Z,18.30
2017-09-03T17:10:10.464Z,18.30
2017-09-03T17:12:38.001Z,18.20
2017-09-03T17:15:05.556Z,18.10
2017-09-03T17:17:33.141Z,18.10
2017-09-03T17:20:00.681Z,18.10
2017-09-03T17:22:28.240Z,18.00
2017-09-03T17:24:55.827Z,18.00
2017-09-03T17:27:23.371Z,18.00
2017-09-03T17:29:52.620Z,17.90
2017-09-03T17:32:20.194Z,17.80
2017-09-03T17:35:05.560Z,17.70
2017-09-03T17:37:48.843Z,17.60
2017-09-03T17:40:19.052Z,17.50
2017-09-03T17:42:48.229Z,17.50
2017-09-03T17:45:15.783Z,17.40
2017-09-03T17:47:43.353Z,17.30
2017-09-03T17:50:10.944Z,17.20
2017-09-03T17:52:38.501Z,17.10
2017-09-03T17:55:06.048Z,17.00
2017-09-03T17:57:33.631Z,16.90
2017-09-03T18:00:01.166Z,16.80
2017-09-03T18:02:28.708Z,16.70
2017-09-03T18:04:57.142Z,16.60
2017-09-03T18:07:24.676Z,16.60
2017-09-03T18:09:52.987Z,16.40
2017-09-03T18:12:20.558Z,16.40
2017-09-03T18:14:48.111Z,16.40
2017-09-03T18:17:15.655Z,16.40
2017-09-03T18:19:43.232Z,16.30
2017-09-03T18:22:10.766Z,16.30
2017-09-03T18:24:38.356Z,16.20
2017-09-03T18:27:05.905Z,16.10
2017-09-03T18:29:50.290Z,16.00
2017-09-03T18:32:17.820Z,16.00
2017-09-03T18:34:45.378Z,15.80
2017-09-03T18:37:16.927Z,15.80
2017-09-03T18:39:48.719Z,15.70
2017-09-03T18:42:22.016Z,15.70
2017-09-03T18:44:49.540Z,15.60
2017-09-03T18:47:17.096Z,15.60
2017-09-03T18:49:48.365Z,15.60
2017-09-03T18:52:31.329Z,15.60
2017-09-03T18:54:58.904Z,15.60
2017-09-03T18:57:26.458Z,15.50
2017-09-03T18:59:54.031Z,15.40
2017-09-03T19:02:23.476Z,15.40
2017-09-03T19:04:51.857Z,15.40
2017-09-03T19:07:19.420Z,15.30
2017-09-03T19:09:46.981Z,15.30
2017-09-03T19:12:14.567Z,15.20
2017-09-03T19:14:42.115Z,15.20
2017-09-03T19:17:09.669Z,15.20
2017-09-03T19:19:37.209Z,15.20
2017-09-03T19:22:04.764Z,15.20
2017-09-03T19:24:32.321Z,15.20
2017-09-03T19:26:59.877Z,15.20
2017-09-03T19:29:27.455Z,15.10
2017-09-03T19:31:55.009Z,15.10
2017-09-03T19:34:22.595Z,15.10
2017-09-03T19:36:50.145Z,15.10
2017-09-03T19:39:17.699Z,15.10
2017-09-03T19:41:45.267Z,15.10
2017-09-03T19:44:12.810Z,15.10
2017-09-03T19:46:40.382Z,15.10
2017-09-03T19:49:10.053Z,15.10
2017-09-03T19:51:37.631Z,15.10
2017-09-03T19:54:05.181Z,15.10
2017-09-03T19:56:32.774Z,15.00
2017-09-03T19:59:00.347Z,15.00
2017-09-03T20:01:27.886Z,15.00
2017-09-03T20:03:55.456Z,15.00
2017-09-03T20:06:23.000Z,14.90
2017-09-03T20:08:50.573Z,14.90
2017-09-03T20:11:18.115Z,14.90
2017-09-03T20:13:45.692Z,14.90
2017-09-03T20:16:13.292Z,14.80
2017-09-03T20:18:40.845Z,14.80
2017-09-03T20:21:08.416Z,14.70
2017-09-03T20:23:35.949Z,14.60
2017-09-03T20:26:03.517Z,14.60
2017-09-03T20:28:31.053Z,14.50
2017-09-03T20:30:58.585Z,14.40
2017-09-03T20:33:26.141Z,14.40
2017-09-03T20:35:53.683Z,14.30
2017-09-03T20:38:21.267Z,14.30
2017-09-03T20:40:48.827Z,14.20
2017-09-03T20:43:16.393Z,14.20
2017-09-03T20:45:43.930Z,14.10
2017-09-03T20:48:11.489Z,14.00
2017-09-03T20:50:39.081Z,14.00
2017-09-03T20:53:06.630Z,14.00
2017-09-03T20:55:34.189Z,13.90
2017-09-03T20:58:01.769Z,13.90
2017-09-03T21:00:29.324Z,13.90
2017-09-03T21:02:56.862Z,13.80
2017-09-03T21:05:24.457Z,13.70
2017-09-03T21:07:52.024Z,13.70
2017-09-03T21:10:19.557Z,13.50
2017-09-03T21:12:47.910Z,13.50
2017-09-03T21:15:15.467Z,13.50
2017-09-03T21:17:43.011Z,13.50
2017-09-03T21:20:10.569Z,13.50
2017-09-03T21:22:38.110Z,13.40
2017-09-03T21:25:05.649Z,13.40
2017-09-03T21:27:33.214Z,13.30
2017-09-03T21:30:00.777Z,13.30
2017-09-03T21:32:29.073Z,13.20
2017-09-03T21:34:56.659Z,13.20
2017-09-03T21:37:24.194Z,13.10
2017-09-03T21:39:51.749Z,13.10
2017-09-03T21:42:19.332Z,13.10
2017-09-03T21:44:46.869Z,13.10
2017-09-03T21:47:14.410Z,13.10
2017-09-03T21:49:41.999Z,13.00
2017-09-03T21:52:09.534Z,13.10
2017-09-03T21:54:37.093Z,13.10
2017-09-03T21:57:05.450Z,13.20
2017-09-03T21:59:33.010Z,13.10
2017-09-03T22:02:00.545Z,13.20
2017-09-03T22:04:28.123Z,13.10
2017-09-03T22:06:55.665Z,13.10
2017-09-03T22:09:23.214Z,13.10
2017-09-03T22:11:50.777Z,13.10
2017-09-03T22:14:18.305Z,13.10
2017-09-03T22:16:45.859Z,13.10
2017-09-03T22:19:13.453Z,13.10
2017-09-03T22:21:41.030Z,13.10
2017-09-03T22:24:08.589Z,13.10
2017-09-03T22:26:36.180Z,13.10
2017-09-03T22:29:03.739Z,13.10
2017-09-03T22:31:31.289Z,13.10
2017-09-03T22:33:58.879Z,13.10
2017-09-03T22:36:26.429Z,13.10
2017-09-03T22:38:53.969Z,13.00
2017-09-03T22:41:21.539Z,13.10
2017-09-03T22:43:49.095Z,13.00
2017-09-03T22:46:16.636Z,13.00
2017-09-03T22:48:44.206Z,13.00
2017-09-03T22:51:11.761Z,12.90
2017-09-03T22:53:39.298Z,12.90
2017-09-03T22:56:07.649Z,12.80
2017-09-03T22:58:35.189Z,12.80
2017-09-03T23:01:02.731Z,12.70
2017-09-03T23:03:30.288Z,12.70
2017-09-03T23:05:57.835Z,12.70
2017-09-03T23:08:25.371Z,12.70
2017-09-03T23:10:52.963Z,12.60
2017-09-03T23:13:20.519Z,12.60
2017-09-03T23:15:48.077Z,12.60
2017-09-03T23:18:15.646Z,12.50
2017-09-03T23:20:43.948Z,12.50
2017-09-03T23:23:11.483Z,12.50
2017-09-03T23:25:39.066Z,12.50
2017-09-03T23:28:06.602Z,12.40
2017-09-03T23:30:34.913Z,12.40
2017-09-03T23:33:02.493Z,12.40
2017-09-03T23:35:30.038Z,12.40
2017-09-03T23:37:57.582Z,12.30
2017-09-03T23:40:25.149Z,12.30
2017-09-03T23:42:52.709Z,12.30
2017-09-03T23:45:20.259Z,12.20
2017-09-03T23:47:47.842Z,12.20
2017-09-03T23:50:15.395Z,12.20
2017-09-03T23:52:42.936Z,12.10
2017-09-03T23:55:10.521Z,12.10
2017-09-03T23:57:38.052Z,12.10
